sensor_id;sensor_type;location;lat;lon;timestamp;temperature;humidity
13960;DHT22;7052;51.050;3.716;2023-01-09T00:01:37;6.60;99.90
13960;DHT22;7052;51.050;3.716;2023-01-09T00:04:04;6.60;99.90
13960;DHT22;7052;51.050;3.716;2023-01-09T00:06:31;6.50;99.90
13960;DHT22;7052;51.050;3.716;2023-01-09T00:08:58;6.50;99.90
13960;DHT22;7052;51.050;3.716;2023-01-09T00:11:25;6.50;99.90
13960;DHT22;7052;51.050;3.716;2023-01-09T00:13:52;6.50;99.90
13960;DHT22;7052;51.050;3.716;2023-01-09T00:16:19;6.50;99.90
13960;DHT22;7052;51.050;3.716;2023-01-09T00:18:47;6.60;99.90
13960;DHT22;7052;51.050;3.716;2023-01-09T00:21:14;6.50;99.90
13960;DHT22;7052;51.050;3.716;2023-01-09T00:23:41;6.60;99.90
13960;DHT22;7052;51.050;3.716;2023-01-09T00:26:10;6.60;99.90
13960;DHT22;7052;51.050;3.716;2023-01-09T00:28:38;6.60;99.90
13960;DHT22;7052;51.050;3.716;2023-01-09T00:31:06;6.60;99.90
13960;DHT22;7052;51.050;3.716;2023-01-09T00:33:34;6.50;99.90
13960;DHT22;7052;51.050;3.716;2023-01-09T00:36:03;6.50;99.90
13960;DHT22;7052;51.050;3.716;2023-01-09T00:38:30;6.50;99.90
13960;DHT22;7052;51.050;3.716;2023-01-09T00:40:57;6.40;99.90
13960;DHT22;7052;51.050;3.716;2023-01-09T00:43:34;6.40;99.90
13960;DHT22;7052;51.050;3.716;2023-01-09T00:46:04;6.40;99.90
13960;DHT22;7052;51.050;3.716;2023-01-09T00:48:32;6.50;99.90
13960;DHT22;7052;51.050;3.716;2023-01-09T00:50:59;6.50;99.90
13960;DHT22;7052;51.050;3.716;2023-01-09T00:53:30;6.40;99.90
13960;DHT22;7052;51.050;3.716;2023-01-09T00:55:58;6.40;99.90
13960;DHT22;7052;51.050;3.716;2023-01-09T00:58:25;6.30;99.90
13960;DHT22;7052;51.050;3.716;2023-01-09T01:00:52;6.30;99.90
13960;DHT22;7052;51.050;3.716;2023-01-09T01:03:19;6.30;99.90
13960;DHT22;7052;51.050;3.716;2023-01-09T01:05:46;6.30;99.90
13960;DHT22;7052;51.050;3.716;2023-01-09T01:08:31;6.30;99.90
13960;DHT22;7052;51.050;3.716;2023-01-09T01:11:02;6.30;99.90
13960;DHT22;7052;51.050;3.716;2023-01-09T01:13:29;6.30;99.90
13960;DHT22;7052;51.050;3.716;2023-01-09T01:15:56;6.40;99.90
13960;DHT22;7052;51.050;3.716;2023-01-09T01:18:23;6.40;99.90
13960;DHT22;7052;51.050;3.716;2023-01-09T01:20:50;6.30;99.90
13960;DHT22;7052;51.050;3.716;2023-01-09T01:23:16;6.40;99.90
13960;DHT22;7052;51.050;3.716;2023-01-09T01:25:45;6.40;99.90
13960;DHT22;7052;51.050;3.716;2023-01-09T01:28:11;6.40;99.90
13960;DHT22;7052;51.050;3.716;2023-01-09T01:30:39;6.50;99.90
13960;DHT22;7052;51.050;3.716;2023-01-09T01:33:07;6.40;99.90
13960;DHT22;7052;51.050;3.716;2023-01-09T01:35:35;6.50;99.90
13960;DHT22;7052;51.050;3.716;2023-01-09T01:38:02;6.50;99.90
13960;DHT22;7052;51.050;3.716;2023-01-09T01:40:29;6.60;99.90
13960;DHT22;7052;51.050;3.716;2023-01-09T01:42:57;6.60;99.90
13960;DHT22;7052;51.050;3.716;2023-01-09T01:45:25;6.70;99.90
13960;DHT22;7052;51.050;3.716;2023-01-09T01:47:55;6.60;99.90
13960;DHT22;7052;51.050;3.716;2023-01-09T01:50:30;6.60;99.90
13960;DHT22;7052;51.050;3.716;2023-01-09T01:53:04;6.60;99.90
13960;DHT22;7052;51.050;3.716;2023-01-09T01:55:33;6.60;99.90
13960;DHT22;7052;51.050;3.716;2023-01-09T01:58:04;6.60;99.90
13960;DHT22;7052;51.050;3.716;2023-01-09T02:00:34;6.60;99.90
13960;DHT22;7052;51.050;3.716;2023-01-09T02:03:02;6.60;99.90
13960;DHT22;7052;51.050;3.716;2023-01-09T02:05:30;6.70;99.90
13960;DHT22;7052;51.050;3.716;2023-01-09T02:07:57;6.70;99.90
13960;DHT22;7052;51.050;3.716;2023-01-09T02:10:23;6.60;99.90
13960;DHT22;7052;51.050;3.716;2023-01-09T02:12:50;6.70;99.90
13960;DHT22;7052;51.050;3.716;2023-01-09T02:15:20;6.70;99.90
13960;DHT22;7052;51.050;3.716;2023-01-09T02:18:03;6.80;99.90
13960;DHT22;7052;51.050;3.716;2023-01-09T02:20:45;6.80;99.90
13960;DHT22;7052;51.050;3.716;2023-01-09T02:24:01;6.90;99.90
13960;DHT22;7052;51.050;3.716;2023-01-09T02:35:49;7.00;99.90
13960;DHT22;7052;51.050;3.716;2023-01-09T02:38:23;7.00;99.90
13960;DHT22;7052;51.050;3.716;2023-01-09T02:40:59;7.00;99.90
13960;DHT22;7052;51.050;3.716;2023-01-09T02:43:27;7.00;99.90
13960;DHT22;7052;51.050;3.716;2023-01-09T02:45:56;7.00;99.90
13960;DHT22;7052;51.050;3.716;2023-01-09T02:48:22;7.00;99.90
13960;DHT22;7052;51.050;3.716;2023-01-09T02:50:56;7.00;99.90
13960;DHT22;7052;51.050;3.716;2023-01-09T02:56:37;6.90;99.90
13960;DHT22;7052;51.050;3.716;2023-01-09T02:59:19;6.80;99.90
13960;DHT22;7052;51.050;3.716;2023-01-09T03:01:55;6.80;99.90
13960;DHT22;7052;51.050;3.716;2023-01-09T03:04:31;6.80;99.90
13960;DHT22;7052;51.050;3.716;2023-01-09T03:07:12;6.90;99.90
13960;DHT22;7052;51.050;3.716;2023-01-09T03:09:41;6.70;99.90
13960;DHT22;7052;51.050;3.716;2023-01-09T03:12:13;6.70;99.90
13960;DHT22;7052;51.050;3.716;2023-01-09T03:14:45;6.70;99.90
13960;DHT22;7052;51.050;3.716;2023-01-09T03:17:19;6.70;99.90
13960;DHT22;7052;51.050;3.716;2023-01-09T03:19:49;6.70;99.90
13960;DHT22;7052;51.050;3.716;2023-01-09T03:22:18;6.70;99.90
13960;DHT22;7052;51.050;3.716;2023-01-09T03:24:45;6.70;99.90
13960;DHT22;7052;51.050;3.716;2023-01-09T03:27:11;6.80;99.90
13960;DHT22;7052;51.050;3.716;2023-01-09T03:29:38;6.80;99.90
13960;DHT22;7052;51.050;3.716;2023-01-09T03:32:05;6.90;99.90
13960;DHT22;7052;51.050;3.716;2023-01-09T03:34:33;6.80;99.90
13960;DHT22;7052;51.050;3.716;2023-01-09T03:37:00;6.90;99.90
13960;DHT22;7052;51.050;3.716;2023-01-09T03:39:29;6.90;99.90
13960;DHT22;7052;51.050;3.716;2023-01-09T03:41:56;6.90;99.90
13960;DHT22;7052;51.050;3.716;2023-01-09T03:44:23;6.90;99.90
13960;DHT22;7052;51.050;3.716;2023-01-09T03:46:49;7.00;99.90
13960;DHT22;7052;51.050;3.716;2023-01-09T03:49:16;7.00;99.90
13960;DHT22;7052;51.050;3.716;2023-01-09T03:51:44;7.00;99.90
13960;DHT22;7052;51.050;3.716;2023-01-09T03:54:11;7.00;99.90
13960;DHT22;7052;51.050;3.716;2023-01-09T03:56:38;7.10;99.90
13960;DHT22;7052;51.050;3.716;2023-01-09T03:59:05;7.10;99.90
13960;DHT22;7052;51.050;3.716;2023-01-09T04:01:32;7.20;99.90
13960;DHT22;7052;51.050;3.716;2023-01-09T04:03:59;7.20;99.90
13960;DHT22;7052;51.050;3.716;2023-01-09T04:06:26;7.30;99.90
13960;DHT22;7052;51.050;3.716;2023-01-09T04:08:54;7.30;99.90
13960;DHT22;7052;51.050;3.716;2023-01-09T04:11:21;7.30;99.90
13960;DHT22;7052;51.050;3.716;2023-01-09T04:13:48;7.30;99.90
13960;DHT22;7052;51.050;3.716;2023-01-09T04:16:15;7.30;99.90
13960;DHT22;7052;51.050;3.716;2023-01-09T04:18:42;7.30;99.90
13960;DHT22;7052;51.050;3.716;2023-01-09T04:21:09;7.40;99.90
13960;DHT22;7052;51.050;3.716;2023-01-09T04:23:35;7.30;99.90
13960;DHT22;7052;51.050;3.716;2023-01-09T04:26:04;7.40;99.90
13960;DHT22;7052;51.050;3.716;2023-01-09T04:28:30;7.40;99.90
13960;DHT22;7052;51.050;3.716;2023-01-09T04:30:57;7.40;99.90
13960;DHT22;7052;51.050;3.716;2023-01-09T04:33:24;7.40;99.90
13960;DHT22;7052;51.050;3.716;2023-01-09T04:35:51;7.40;99.90
13960;DHT22;7052;51.050;3.716;2023-01-09T04:38:18;7.40;99.90
13960;DHT22;7052;51.050;3.716;2023-01-09T04:40:46;7.40;99.90
13960;DHT22;7052;51.050;3.716;2023-01-09T04:43:14;7.30;99.90
13960;DHT22;7052;51.050;3.716;2023-01-09T04:45:41;7.30;99.90
13960;DHT22;7052;51.050;3.716;2023-01-09T04:48:08;7.30;99.90
13960;DHT22;7052;51.050;3.716;2023-01-09T04:50:35;7.30;99.90
13960;DHT22;7052;51.050;3.716;2023-01-09T04:53:02;7.30;99.90
13960;DHT22;7052;51.050;3.716;2023-01-09T04:55:30;7.30;99.90
13960;DHT22;7052;51.050;3.716;2023-01-09T04:57:57;7.30;99.90
13960;DHT22;7052;51.050;3.716;2023-01-09T05:00:25;7.30;99.90
13960;DHT22;7052;51.050;3.716;2023-01-09T05:02:52;7.30;99.90
13960;DHT22;7052;51.050;3.716;2023-01-09T05:05:19;7.30;99.90
13960;DHT22;7052;51.050;3.716;2023-01-09T05:07:45;7.30;99.90
13960;DHT22;7052;51.050;3.716;2023-01-09T05:10:12;7.30;99.90
13960;DHT22;7052;51.050;3.716;2023-01-09T05:12:39;7.30;99.90
13960;DHT22;7052;51.050;3.716;2023-01-09T05:15:08;7.30;99.90
13960;DHT22;7052;51.050;3.716;2023-01-09T05:17:36;7.00;99.90
13960;DHT22;7052;51.050;3.716;2023-01-09T05:20:03;7.50;99.90
13960;DHT22;7052;51.050;3.716;2023-01-09T05:22:30;7.40;99.90
13960;DHT22;7052;51.050;3.716;2023-01-09T05:24:57;7.40;99.90
13960;DHT22;7052;51.050;3.716;2023-01-09T05:27:24;7.40;99.90
13960;DHT22;7052;51.050;3.716;2023-01-09T05:29:51;7.40;99.90
13960;DHT22;7052;51.050;3.716;2023-01-09T05:32:18;7.40;99.90
13960;DHT22;7052;51.050;3.716;2023-01-09T05:34:46;7.50;99.90
13960;DHT22;7052;51.050;3.716;2023-01-09T05:37:13;7.50;99.90
13960;DHT22;7052;51.050;3.716;2023-01-09T05:39:40;7.50;99.90
13960;DHT22;7052;51.050;3.716;2023-01-09T05:42:07;7.50;99.90
13960;DHT22;7052;51.050;3.716;2023-01-09T05:44:33;7.50;99.90
13960;DHT22;7052;51.050;3.716;2023-01-09T05:47:00;7.50;99.90
13960;DHT22;7052;51.050;3.716;2023-01-09T05:49:27;7.50;99.90
13960;DHT22;7052;51.050;3.716;2023-01-09T05:51:55;7.50;99.90
13960;DHT22;7052;51.050;3.716;2023-01-09T05:54:24;7.40;99.90
13960;DHT22;7052;51.050;3.716;2023-01-09T05:56:51;7.40;99.90
13960;DHT22;7052;51.050;3.716;2023-01-09T05:59:18;7.40;99.90
13960;DHT22;7052;51.050;3.716;2023-01-09T06:01:45;7.50;99.90
13960;DHT22;7052;51.050;3.716;2023-01-09T06:04:12;7.60;99.90
13960;DHT22;7052;51.050;3.716;2023-01-09T06:06:39;7.60;99.90
13960;DHT22;7052;51.050;3.716;2023-01-09T06:09:07;7.60;99.90
13960;DHT22;7052;51.050;3.716;2023-01-09T06:11:36;7.70;99.90
13960;DHT22;7052;51.050;3.716;2023-01-09T06:14:03;7.70;99.90
13960;DHT22;7052;51.050;3.716;2023-01-09T06:16:33;7.70;99.90
13960;DHT22;7052;51.050;3.716;2023-01-09T06:19:00;7.70;99.90
13960;DHT22;7052;51.050;3.716;2023-01-09T06:21:28;7.70;99.90
13960;DHT22;7052;51.050;3.716;2023-01-09T06:23:55;7.70;99.90
13960;DHT22;7052;51.050;3.716;2023-01-09T06:26:23;7.80;99.90
13960;DHT22;7052;51.050;3.716;2023-01-09T06:28:50;7.80;99.90
13960;DHT22;7052;51.050;3.716;2023-01-09T06:31:20;7.90;99.90
13960;DHT22;7052;51.050;3.716;2023-01-09T06:33:47;7.90;99.90
13960;DHT22;7052;51.050;3.716;2023-01-09T06:36:14;8.00;99.90
13960;DHT22;7052;51.050;3.716;2023-01-09T06:38:42;8.00;99.90
13960;DHT22;7052;51.050;3.716;2023-01-09T06:41:09;8.00;99.90
13960;DHT22;7052;51.050;3.716;2023-01-09T06:43:37;8.00;99.90
13960;DHT22;7052;51.050;3.716;2023-01-09T06:46:05;8.00;99.90
13960;DHT22;7052;51.050;3.716;2023-01-09T06:48:32;8.00;99.90
13960;DHT22;7052;51.050;3.716;2023-01-09T06:51:00;8.00;99.90
13960;DHT22;7052;51.050;3.716;2023-01-09T06:53:27;8.00;99.90
13960;DHT22;7052;51.050;3.716;2023-01-09T06:55:54;8.00;99.90
13960;DHT22;7052;51.050;3.716;2023-01-09T06:58:20;8.00;99.90
13960;DHT22;7052;51.050;3.716;2023-01-09T07:00:49;8.00;99.90
13960;DHT22;7052;51.050;3.716;2023-01-09T07:03:15;8.00;99.90
13960;DHT22;7052;51.050;3.716;2023-01-09T07:05:45;8.00;99.90
13960;DHT22;7052;51.050;3.716;2023-01-09T07:08:11;8.00;99.90
13960;DHT22;7052;51.050;3.716;2023-01-09T07:10:40;8.00;99.90
13960;DHT22;7052;51.050;3.716;2023-01-09T07:13:07;7.90;99.90
13960;DHT22;7052;51.050;3.716;2023-01-09T07:15:34;8.20;99.90
13960;DHT22;7052;51.050;3.716;2023-01-09T07:18:02;8.00;99.90
13960;DHT22;7052;51.050;3.716;2023-01-09T07:20:29;7.90;99.90
13960;DHT22;7052;51.050;3.716;2023-01-09T07:22:56;7.90;99.90
13960;DHT22;7052;51.050;3.716;2023-01-09T07:25:23;8.00;99.90
13960;DHT22;7052;51.050;3.716;2023-01-09T07:27:50;8.00;99.90
13960;DHT22;7052;51.050;3.716;2023-01-09T07:30:17;8.00;99.90
13960;DHT22;7052;51.050;3.716;2023-01-09T07:32:44;8.00;99.90
13960;DHT22;7052;51.050;3.716;2023-01-09T07:35:13;8.20;99.90
13960;DHT22;7052;51.050;3.716;2023-01-09T07:37:40;8.10;99.90
13960;DHT22;7052;51.050;3.716;2023-01-09T07:40:08;8.20;99.90
13960;DHT22;7052;51.050;3.716;2023-01-09T07:42:35;8.10;99.90
13960;DHT22;7052;51.050;3.716;2023-01-09T07:45:02;8.10;99.90
13960;DHT22;7052;51.050;3.716;2023-01-09T07:47:29;8.10;99.90
13960;DHT22;7052;51.050;3.716;2023-01-09T07:49:56;8.10;99.90
13960;DHT22;7052;51.050;3.716;2023-01-09T07:52:25;8.00;99.90
13960;DHT22;7052;51.050;3.716;2023-01-09T07:54:52;8.00;99.90
13960;DHT22;7052;51.050;3.716;2023-01-09T07:57:19;8.00;99.90
13960;DHT22;7052;51.050;3.716;2023-01-09T07:59:46;8.00;99.90
13960;DHT22;7052;51.050;3.716;2023-01-09T08:02:13;8.10;99.90
13960;DHT22;7052;51.050;3.716;2023-01-09T08:04:40;8.00;99.90
13960;DHT22;7052;51.050;3.716;2023-01-09T08:07:07;8.40;99.90
13960;DHT22;7052;51.050;3.716;2023-01-09T08:09:35;8.20;99.90
13960;DHT22;7052;51.050;3.716;2023-01-09T08:12:02;8.00;99.90
13960;DHT22;7052;51.050;3.716;2023-01-09T08:14:29;8.10;99.90
13960;DHT22;7052;51.050;3.716;2023-01-09T08:16:56;8.00;99.90
13960;DHT22;7052;51.050;3.716;2023-01-09T08:19:25;8.00;99.90
13960;DHT22;7052;51.050;3.716;2023-01-09T08:21:52;8.00;99.90
13960;DHT22;7052;51.050;3.716;2023-01-09T08:24:19;8.10;99.90
13960;DHT22;7052;51.050;3.716;2023-01-09T08:26:47;8.00;99.90
13960;DHT22;7052;51.050;3.716;2023-01-09T08:29:14;7.90;99.90
13960;DHT22;7052;51.050;3.716;2023-01-09T08:31:41;7.80;99.90
13960;DHT22;7052;51.050;3.716;2023-01-09T08:34:08;7.90;99.90
13960;DHT22;7052;51.050;3.716;2023-01-09T08:36:35;7.80;99.90
13960;DHT22;7052;51.050;3.716;2023-01-09T08:39:02;7.80;99.90
13960;DHT22;7052;51.050;3.716;2023-01-09T08:41:29;7.90;99.90
13960;DHT22;7052;51.050;3.716;2023-01-09T08:44:15;7.80;99.90
13960;DHT22;7052;51.050;3.716;2023-01-09T08:46:59;7.80;99.90
13960;DHT22;7052;51.050;3.716;2023-01-09T08:49:33;7.80;99.90
13960;DHT22;7052;51.050;3.716;2023-01-09T08:52:00;7.90;99.90
13960;DHT22;7052;51.050;3.716;2023-01-09T08:54:27;7.90;99.90
13960;DHT22;7052;51.050;3.716;2023-01-09T08:56:53;7.90;99.90
13960;DHT22;7052;51.050;3.716;2023-01-09T08:59:22;7.90;99.90
13960;DHT22;7052;51.050;3.716;2023-01-09T09:01:49;7.90;99.90
13960;DHT22;7052;51.050;3.716;2023-01-09T09:04:16;7.90;99.90
13960;DHT22;7052;51.050;3.716;2023-01-09T09:06:43;8.00;99.90
13960;DHT22;7052;51.050;3.716;2023-01-09T09:09:10;8.00;99.90
13960;DHT22;7052;51.050;3.716;2023-01-09T09:11:38;7.90;99.90
13960;DHT22;7052;51.050;3.716;2023-01-09T09:14:05;8.00;99.90
13960;DHT22;7052;51.050;3.716;2023-01-09T09:16:47;7.90;99.90
13960;DHT22;7052;51.050;3.716;2023-01-09T09:19:14;8.00;99.90
13960;DHT22;7052;51.050;3.716;2023-01-09T09:21:41;8.00;99.90
13960;DHT22;7052;51.050;3.716;2023-01-09T09:24:08;8.00;99.90
13960;DHT22;7052;51.050;3.716;2023-01-09T09:26:35;8.00;99.90
13960;DHT22;7052;51.050;3.716;2023-01-09T09:29:02;8.00;99.90
13960;DHT22;7052;51.050;3.716;2023-01-09T09:31:29;8.00;99.90
13960;DHT22;7052;51.050;3.716;2023-01-09T09:33:58;8.00;99.90
13960;DHT22;7052;51.050;3.716;2023-01-09T09:36:25;8.00;99.90
13960;DHT22;7052;51.050;3.716;2023-01-09T09:38:52;8.00;99.90
13960;DHT22;7052;51.050;3.716;2023-01-09T09:41:41;8.00;99.90
13960;DHT22;7052;51.050;3.716;2023-01-09T09:44:46;8.10;99.90
13960;DHT22;7052;51.050;3.716;2023-01-09T09:47:31;8.00;99.90
13960;DHT22;7052;51.050;3.716;2023-01-09T09:50:14;8.00;99.90
13960;DHT22;7052;51.050;3.716;2023-01-09T09:52:50;8.00;99.90
13960;DHT22;7052;51.050;3.716;2023-01-09T09:55:24;8.00;99.90
13960;DHT22;7052;51.050;3.716;2023-01-09T09:57:53;8.00;99.90
13960;DHT22;7052;51.050;3.716;2023-01-09T10:00:22;8.00;99.90
13960;DHT22;7052;51.050;3.716;2023-01-09T10:02:53;8.00;99.90
13960;DHT22;7052;51.050;3.716;2023-01-09T10:05:25;8.10;99.90
13960;DHT22;7052;51.050;3.716;2023-01-09T10:07:53;8.10;99.90
13960;DHT22;7052;51.050;3.716;2023-01-09T10:10:28;8.20;99.90
13960;DHT22;7052;51.050;3.716;2023-01-09T10:12:57;8.20;99.90
13960;DHT22;7052;51.050;3.716;2023-01-09T10:15:33;8.30;99.90
13960;DHT22;7052;51.050;3.716;2023-01-09T10:18:13;8.30;99.90
13960;DHT22;7052;51.050;3.716;2023-01-09T10:21:03;8.40;99.90
13960;DHT22;7052;51.050;3.716;2023-01-09T10:23:51;8.30;99.90
13960;DHT22;7052;51.050;3.716;2023-01-09T10:26:26;8.30;99.90
13960;DHT22;7052;51.050;3.716;2023-01-09T10:29:12;8.40;99.90
13960;DHT22;7052;51.050;3.716;2023-01-09T10:31:49;8.40;99.90
13960;DHT22;7052;51.050;3.716;2023-01-09T10:34:29;8.40;99.90
13960;DHT22;7052;51.050;3.716;2023-01-09T10:37:05;8.50;99.90
13960;DHT22;7052;51.050;3.716;2023-01-09T10:39:38;8.50;99.90
13960;DHT22;7052;51.050;3.716;2023-01-09T10:42:12;8.50;99.90
13960;DHT22;7052;51.050;3.716;2023-01-09T10:44:50;8.50;99.90
13960;DHT22;7052;51.050;3.716;2023-01-09T10:47:23;8.50;99.90
13960;DHT22;7052;51.050;3.716;2023-01-09T10:49:51;8.60;99.90
13960;DHT22;7052;51.050;3.716;2023-01-09T10:52:24;8.70;99.90
13960;DHT22;7052;51.050;3.716;2023-01-09T10:54:54;8.60;99.90
13960;DHT22;7052;51.050;3.716;2023-01-09T10:57:33;8.60;99.90
13960;DHT22;7052;51.050;3.716;2023-01-09T11:00:04;8.60;99.90
13960;DHT22;7052;51.050;3.716;2023-01-09T11:02:33;8.60;99.90
13960;DHT22;7052;51.050;3.716;2023-01-09T11:05:00;8.70;99.90
13960;DHT22;7052;51.050;3.716;2023-01-09T11:07:32;8.70;99.90
13960;DHT22;7052;51.050;3.716;2023-01-09T11:10:01;8.80;99.90
13960;DHT22;7052;51.050;3.716;2023-01-09T11:12:30;8.90;99.90
13960;DHT22;7052;51.050;3.716;2023-01-09T11:15:21;8.70;99.90
13960;DHT22;7052;51.050;3.716;2023-01-09T11:17:54;8.80;99.90
13960;DHT22;7052;51.050;3.716;2023-01-09T11:20:24;8.80;99.90
13960;DHT22;7052;51.050;3.716;2023-01-09T11:22:53;8.80;99.90
13960;DHT22;7052;51.050;3.716;2023-01-09T11:25:22;8.80;99.90
13960;DHT22;7052;51.050;3.716;2023-01-09T11:28:04;8.80;99.90
13960;DHT22;7052;51.050;3.716;2023-01-09T11:30:32;8.80;99.90
13960;DHT22;7052;51.050;3.716;2023-01-09T11:33:12;8.80;99.90
13960;DHT22;7052;51.050;3.716;2023-01-09T11:35:55;8.80;99.90
13960;DHT22;7052;51.050;3.716;2023-01-09T11:38:24;8.80;99.90
13960;DHT22;7052;51.050;3.716;2023-01-09T11:40:53;8.80;99.90
13960;DHT22;7052;51.050;3.716;2023-01-09T11:43:27;8.80;99.90
13960;DHT22;7052;51.050;3.716;2023-01-09T11:45:58;8.90;99.90
13960;DHT22;7052;51.050;3.716;2023-01-09T11:48:35;8.90;99.90
13960;DHT22;7052;51.050;3.716;2023-01-09T11:51:05;8.90;99.90
13960;DHT22;7052;51.050;3.716;2023-01-09T11:53:49;8.90;99.90
13960;DHT22;7052;51.050;3.716;2023-01-09T11:56:18;8.90;99.90
13960;DHT22;7052;51.050;3.716;2023-01-09T11:58:45;9.00;99.90
13960;DHT22;7052;51.050;3.716;2023-01-09T12:01:23;9.00;99.90
13960;DHT22;7052;51.050;3.716;2023-01-09T12:04:14;9.10;99.90
13960;DHT22;7052;51.050;3.716;2023-01-09T12:06:53;9.10;99.90
13960;DHT22;7052;51.050;3.716;2023-01-09T12:09:27;9.00;99.90
13960;DHT22;7052;51.050;3.716;2023-01-09T12:12:03;9.00;99.90
13960;DHT22;7052;51.050;3.716;2023-01-09T12:14:44;9.20;99.90
13960;DHT22;7052;51.050;3.716;2023-01-09T12:17:29;9.20;99.90
13960;DHT22;7052;51.050;3.716;2023-01-09T12:20:28;9.40;99.90
13960;DHT22;7052;51.050;3.716;2023-01-09T12:23:11;9.30;99.90
13960;DHT22;7052;51.050;3.716;2023-01-09T12:25:51;9.40;99.90
13960;DHT22;7052;51.050;3.716;2023-01-09T12:28:38;9.40;99.90
13960;DHT22;7052;51.050;3.716;2023-01-09T12:31:18;9.60;99.90
13960;DHT22;7052;51.050;3.716;2023-01-09T12:33:56;9.60;99.90
13960;DHT22;7052;51.050;3.716;2023-01-09T12:36:35;9.60;99.90
13960;DHT22;7052;51.050;3.716;2023-01-09T12:39:14;9.60;99.90
13960;DHT22;7052;51.050;3.716;2023-01-09T12:44:54;9.70;99.90
13960;DHT22;7052;51.050;3.716;2023-01-09T12:47:43;9.70;99.90
13960;DHT22;7052;51.050;3.716;2023-01-09T12:50:43;9.70;99.90
13960;DHT22;7052;51.050;3.716;2023-01-09T12:53:18;9.80;99.90
13960;DHT22;7052;51.050;3.716;2023-01-09T12:55:51;10.00;99.90
13960;DHT22;7052;51.050;3.716;2023-01-09T12:58:30;9.90;99.90
13960;DHT22;7052;51.050;3.716;2023-01-09T13:00:59;9.90;99.90
13960;DHT22;7052;51.050;3.716;2023-01-09T13:03:33;9.90;99.90
13960;DHT22;7052;51.050;3.716;2023-01-09T13:06:02;9.80;99.90
13960;DHT22;7052;51.050;3.716;2023-01-09T13:08:35;9.70;99.90
13960;DHT22;7052;51.050;3.716;2023-01-09T13:11:06;9.60;99.90
13960;DHT22;7052;51.050;3.716;2023-01-09T13:13:43;9.60;99.90
13960;DHT22;7052;51.050;3.716;2023-01-09T13:16:13;9.50;99.90
13960;DHT22;7052;51.050;3.716;2023-01-09T13:18:44;9.40;99.90
13960;DHT22;7052;51.050;3.716;2023-01-09T13:21:13;9.20;99.90
13960;DHT22;7052;51.050;3.716;2023-01-09T13:23:45;9.10;99.90
13960;DHT22;7052;51.050;3.716;2023-01-09T13:26:17;9.10;99.90
13960;DHT22;7052;51.050;3.716;2023-01-09T13:28:50;9.00;99.90
13960;DHT22;7052;51.050;3.716;2023-01-09T13:34:11;8.90;99.90
13960;DHT22;7052;51.050;3.716;2023-01-09T13:36:45;8.90;99.90
13960;DHT22;7052;51.050;3.716;2023-01-09T13:39:19;8.80;99.90
13960;DHT22;7052;51.050;3.716;2023-01-09T13:41:50;8.80;99.90
13960;DHT22;7052;51.050;3.716;2023-01-09T13:44:36;8.80;99.90
13960;DHT22;7052;51.050;3.716;2023-01-09T13:47:04;8.70;99.90
13960;DHT22;7052;51.050;3.716;2023-01-09T13:52:34;8.80;99.90
13960;DHT22;7052;51.050;3.716;2023-01-09T13:55:29;8.80;99.90
13960;DHT22;7052;51.050;3.716;2023-01-09T13:58:23;8.90;99.90
13960;DHT22;7052;51.050;3.716;2023-01-09T14:00:57;8.90;99.90
13960;DHT22;7052;51.050;3.716;2023-01-09T14:03:27;8.90;99.90
13960;DHT22;7052;51.050;3.716;2023-01-09T14:06:08;8.90;99.90
13960;DHT22;7052;51.050;3.716;2023-01-09T14:08:37;8.90;99.90
13960;DHT22;7052;51.050;3.716;2023-01-09T14:11:06;8.90;99.90
13960;DHT22;7052;51.050;3.716;2023-01-09T14:13:38;8.90;99.90
13960;DHT22;7052;51.050;3.716;2023-01-09T14:16:14;8.90;99.90
13960;DHT22;7052;51.050;3.716;2023-01-09T14:18:47;8.90;99.90
13960;DHT22;7052;51.050;3.716;2023-01-09T14:21:15;8.90;99.90
13960;DHT22;7052;51.050;3.716;2023-01-09T14:23:48;8.90;99.90
13960;DHT22;7052;51.050;3.716;2023-01-09T14:26:18;8.90;99.90
13960;DHT22;7052;51.050;3.716;2023-01-09T14:28:45;8.80;99.90
13960;DHT22;7052;51.050;3.716;2023-01-09T14:31:27;8.80;99.90
13960;DHT22;7052;51.050;3.716;2023-01-09T14:34:23;8.80;99.90
13960;DHT22;7052;51.050;3.716;2023-01-09T14:36:52;8.80;99.90
13960;DHT22;7052;51.050;3.716;2023-01-09T14:39:22;8.80;99.90
13960;DHT22;7052;51.050;3.716;2023-01-09T14:41:50;8.70;99.90
13960;DHT22;7052;51.050;3.716;2023-01-09T14:44:31;8.70;99.90
13960;DHT22;7052;51.050;3.716;2023-01-09T14:47:09;8.70;99.90
13960;DHT22;7052;51.050;3.716;2023-01-09T14:49:40;8.80;99.90
13960;DHT22;7052;51.050;3.716;2023-01-09T14:52:19;8.70;99.90
13960;DHT22;7052;51.050;3.716;2023-01-09T14:54:47;8.80;99.90
13960;DHT22;7052;51.050;3.716;2023-01-09T14:57:29;8.80;99.90
13960;DHT22;7052;51.050;3.716;2023-01-09T14:59:57;8.80;99.90
13960;DHT22;7052;51.050;3.716;2023-01-09T15:02:27;8.80;99.90
13960;DHT22;7052;51.050;3.716;2023-01-09T15:04:58;8.70;99.90
13960;DHT22;7052;51.050;3.716;2023-01-09T15:07:27;8.80;99.90
13960;DHT22;7052;51.050;3.716;2023-01-09T15:10:00;9.10;99.90
13960;DHT22;7052;51.050;3.716;2023-01-09T15:12:28;8.70;99.90
13960;DHT22;7052;51.050;3.716;2023-01-09T15:14:59;8.70;99.90
13960;DHT22;7052;51.050;3.716;2023-01-09T15:17:31;8.70;99.90
13960;DHT22;7052;51.050;3.716;2023-01-09T15:20:01;8.70;99.90
13960;DHT22;7052;51.050;3.716;2023-01-09T15:22:32;8.70;99.90
13960;DHT22;7052;51.050;3.716;2023-01-09T15:25:19;8.60;99.90
13960;DHT22;7052;51.050;3.716;2023-01-09T15:27:47;8.50;99.90
13960;DHT22;7052;51.050;3.716;2023-01-09T15:30:15;8.30;99.90
13960;DHT22;7052;51.050;3.716;2023-01-09T15:32:45;8.30;99.90
13960;DHT22;7052;51.050;3.716;2023-01-09T15:35:13;8.30;99.90
13960;DHT22;7052;51.050;3.716;2023-01-09T15:37:41;8.20;99.90
13960;DHT22;7052;51.050;3.716;2023-01-09T15:40:17;8.10;99.90
13960;DHT22;7052;51.050;3.716;2023-01-09T15:42:47;8.10;99.90
13960;DHT22;7052;51.050;3.716;2023-01-09T15:45:24;8.10;99.90
13960;DHT22;7052;51.050;3.716;2023-01-09T15:47:54;8.00;99.90
13960;DHT22;7052;51.050;3.716;2023-01-09T15:50:40;8.00;99.90
13960;DHT22;7052;51.050;3.716;2023-01-09T15:53:11;8.00;99.90
13960;DHT22;7052;51.050;3.716;2023-01-09T15:55:39;8.00;99.90
13960;DHT22;7052;51.050;3.716;2023-01-09T15:58:24;7.90;99.90
13960;DHT22;7052;51.050;3.716;2023-01-09T16:00:54;7.90;99.90
13960;DHT22;7052;51.050;3.716;2023-01-09T16:03:23;7.90;99.90
13960;DHT22;7052;51.050;3.716;2023-01-09T16:05:54;7.90;99.90
13960;DHT22;7052;51.050;3.716;2023-01-09T16:08:27;7.90;99.90
13960;DHT22;7052;51.050;3.716;2023-01-09T16:10:58;7.80;99.90
13960;DHT22;7052;51.050;3.716;2023-01-09T16:13:29;7.90;99.90
13960;DHT22;7052;51.050;3.716;2023-01-09T16:15:57;7.90;99.90
13960;DHT22;7052;51.050;3.716;2023-01-09T16:18:31;7.90;99.90
13960;DHT22;7052;51.050;3.716;2023-01-09T16:21:03;7.80;99.90
13960;DHT22;7052;51.050;3.716;2023-01-09T16:23:33;7.80;99.90
13960;DHT22;7052;51.050;3.716;2023-01-09T16:26:05;7.80;99.90
13960;DHT22;7052;51.050;3.716;2023-01-09T16:28:32;7.90;99.90
13960;DHT22;7052;51.050;3.716;2023-01-09T16:31:01;7.90;99.90
13960;DHT22;7052;51.050;3.716;2023-01-09T16:33:31;7.80;99.90
13960;DHT22;7052;51.050;3.716;2023-01-09T16:35:58;7.80;99.90
13960;DHT22;7052;51.050;3.716;2023-01-09T16:38:27;7.80;99.90
13960;DHT22;7052;51.050;3.716;2023-01-09T16:41:02;7.80;99.90
13960;DHT22;7052;51.050;3.716;2023-01-09T16:43:47;7.80;99.90
13960;DHT22;7052;51.050;3.716;2023-01-09T16:46:14;7.80;99.90
13960;DHT22;7052;51.050;3.716;2023-01-09T16:48:46;7.80;99.90